createdAt,value
2018-12-09T00:00:18.551Z,811.57
2018-12-09T00:01:18.565Z,811.64
2018-12-09T00:02:18.562Z,811.73
2018-12-09T00:03:18.571Z,811.63
2018-12-09T00:04:18.575Z,811.72
2018-12-09T00:05:18.582Z,811.90
2018-12-09T00:06:18.592Z,811.98
2018-12-09T00:07:18.596Z,811.70
2018-12-09T00:08:18.605Z,811.70
2018-12-09T00:09:18.614Z,811.50
2018-12-09T00:10:18.618Z,811.51
2018-12-09T00:11:18.622Z,811.71
2018-12-09T00:12:18.631Z,811.77
2018-12-09T00:13:18.640Z,811.34
2018-12-09T00:14:18.644Z,811.63
2018-12-09T00:15:18.651Z,811.64
2018-12-09T00:16:18.658Z,811.87
2018-12-09T00:17:18.666Z,811.55
2018-12-09T00:18:18.671Z,811.24
2018-12-09T00:19:18.767Z,811.39
2018-12-09T00:20:18.685Z,811.50
2018-12-09T00:21:18.691Z,811.33
2018-12-09T00:22:18.701Z,811.24
2018-12-09T00:23:18.707Z,811.31
2018-12-09T00:24:18.713Z,811.55
2018-12-09T00:25:18.719Z,811.32
2018-12-09T00:26:18.728Z,811.21
2018-12-09T00:27:18.732Z,811.31
2018-12-09T00:28:18.742Z,811.53
2018-12-09T00:29:18.746Z,811.34
2018-12-09T00:30:18.756Z,811.29
2018-12-09T00:31:18.759Z,811.12
2018-12-09T00:32:18.771Z,811.25
2018-12-09T00:33:18.773Z,811.27
2018-12-09T00:34:18.778Z,811.07
2018-12-09T00:35:18.786Z,811.38
2018-12-09T00:36:18.794Z,811.35
2018-12-09T00:37:18.800Z,811.22
2018-12-09T00:38:18.805Z,811.22
2018-12-09T00:39:18.812Z,811.32
2018-12-09T00:40:18.817Z,811.37
2018-12-09T00:41:18.827Z,811.32
2018-12-09T00:42:18.837Z,811.06
2018-12-09T00:43:18.838Z,811.35
2018-12-09T00:44:18.846Z,811.28
2018-12-09T00:45:18.852Z,811.23
2018-12-09T00:46:18.862Z,811.27
2018-12-09T00:47:18.868Z,811.15
2018-12-09T00:48:18.874Z,811.24
2018-12-09T00:49:18.881Z,811.32
2018-12-09T00:50:18.889Z,811.50
2018-12-09T00:51:18.895Z,811.37
2018-12-09T00:52:18.906Z,811.29
2018-12-09T00:53:18.909Z,811.35
2018-12-09T00:54:18.920Z,811.33
2018-12-09T00:55:18.920Z,811.40
2018-12-09T00:56:18.930Z,811.09
2018-12-09T00:57:18.941Z,810.80
2018-12-09T00:58:18.948Z,811.21
2018-12-09T00:59:18.950Z,811.35
2018-12-09T01:00:18.957Z,811.32
2018-12-09T01:01:18.964Z,811.23
2018-12-09T01:02:18.976Z,811.16
2018-12-09T01:03:18.977Z,811.06
2018-12-09T01:04:18.981Z,811.12
2018-12-09T01:05:18.988Z,811.07
2018-12-09T01:06:18.994Z,811.09
2018-12-09T01:07:19.000Z,811.02
2018-12-09T01:08:19.010Z,810.97
2018-12-09T01:09:19.014Z,811.04
2018-12-09T01:10:19.021Z,810.93
2018-12-09T01:11:19.029Z,810.93
2018-12-09T01:12:19.035Z,810.76
2018-12-09T01:13:19.041Z,810.73
2018-12-09T01:14:19.049Z,810.92
2018-12-09T01:15:19.055Z,810.94
2018-12-09T01:16:19.063Z,811.20
2018-12-09T01:17:19.068Z,811.17
2018-12-09T01:18:19.077Z,811.01
2018-12-09T01:19:19.083Z,811.08
2018-12-09T01:20:19.089Z,811.01
2018-12-09T01:21:19.097Z,811.40
2018-12-09T01:22:19.105Z,810.98
2018-12-09T01:23:19.109Z,811.21
2018-12-09T01:24:19.117Z,811.21
2018-12-09T01:25:19.121Z,811.20
2018-12-09T01:26:19.129Z,811.55
2018-12-09T01:27:19.136Z,811.16
2018-12-09T01:28:19.144Z,811.03
2018-12-09T01:29:19.147Z,811.07
2018-12-09T01:30:19.156Z,810.96
2018-12-09T01:31:19.163Z,811.09
2018-12-09T01:32:19.168Z,811.14
2018-12-09T01:33:19.177Z,811.01
2018-12-09T01:34:19.182Z,811.01
2018-12-09T01:35:19.186Z,811.13
2018-12-09T01:36:19.289Z,811.19
2018-12-09T01:37:19.200Z,811.07
2018-12-09T01:38:19.206Z,810.88
2018-12-09T01:39:19.212Z,811.11
2018-12-09T01:40:19.219Z,810.77
2018-12-09T01:41:19.226Z,810.95
2018-12-09T01:42:19.232Z,810.83
2018-12-09T01:43:19.238Z,810.89
2018-12-09T01:44:19.244Z,810.88
2018-12-09T01:45:19.250Z,810.98
2018-12-09T01:46:19.259Z,810.87
2018-12-09T01:47:19.265Z,811.03
2018-12-09T01:48:19.269Z,810.77
2018-12-09T01:49:19.280Z,810.78
2018-12-09T01:50:19.286Z,810.79
2018-12-09T01:51:19.290Z,811.16
2018-12-09T01:52:19.299Z,811.01
2018-12-09T01:53:19.303Z,811.07
2018-12-09T01:54:19.309Z,810.87
2018-12-09T01:55:19.316Z,810.87
2018-12-09T01:56:19.323Z,810.87
2018-12-09T01:57:19.333Z,810.88
2018-12-09T01:58:19.347Z,810.74
2018-12-09T01:59:19.341Z,810.83
2018-12-09T02:00:19.350Z,810.56
2018-12-09T02:01:19.356Z,810.71
2018-12-09T02:02:19.365Z,810.81
2018-12-09T02:03:19.372Z,810.74
2018-12-09T02:04:19.375Z,810.92
2018-12-09T02:05:19.381Z,810.87
2018-12-09T02:06:19.388Z,810.96
2018-12-09T02:07:19.394Z,810.93
2018-12-09T02:08:19.400Z,810.50
2018-12-09T02:09:19.406Z,810.61
2018-12-09T02:10:19.416Z,810.64
2018-12-09T02:11:19.420Z,810.35
2018-12-09T02:12:19.425Z,810.21
2018-12-09T02:13:19.432Z,810.47
2018-12-09T02:14:19.439Z,810.46
2018-12-09T02:15:19.446Z,810.29
2018-12-09T02:16:19.457Z,810.43
2018-12-09T02:17:19.462Z,810.34
2018-12-09T02:18:19.467Z,810.24
2018-12-09T02:19:19.472Z,810.43
2018-12-09T02:20:19.477Z,810.39
2018-12-09T02:21:19.486Z,810.14
2018-12-09T02:22:19.494Z,810.09
2018-12-09T02:23:19.499Z,809.97
2018-12-09T02:24:19.504Z,810.15
2018-12-09T02:25:19.515Z,810.06
2018-12-09T02:26:19.518Z,809.98
2018-12-09T02:27:19.522Z,809.93
2018-12-09T02:28:19.529Z,809.66
2018-12-09T02:29:19.537Z,809.96
2018-12-09T02:30:19.546Z,809.73
2018-12-09T02:31:19.551Z,809.77
2018-12-09T02:32:19.558Z,809.76
2018-12-09T02:33:19.565Z,809.76
2018-12-09T02:34:19.585Z,809.75
2018-12-09T02:35:19.580Z,809.62
2018-12-09T02:36:19.585Z,809.54
2018-12-09T02:37:19.590Z,809.52
2018-12-09T02:38:19.600Z,809.62
2018-12-09T02:39:19.603Z,809.16
2018-12-09T02:40:19.610Z,809.42
2018-12-09T02:41:19.615Z,809.39
2018-12-09T02:42:19.629Z,809.34
2018-12-09T02:43:19.630Z,809.47
2018-12-09T02:44:19.636Z,809.46
2018-12-09T02:45:19.645Z,809.40
2018-12-09T02:46:19.651Z,809.30
2018-12-09T02:47:19.752Z,809.31
2018-12-09T02:48:19.665Z,809.41
2018-12-09T02:49:19.672Z,809.41
2018-12-09T02:50:19.679Z,809.43
2018-12-09T02:51:19.685Z,809.30
2018-12-09T02:52:19.692Z,809.17
2018-12-09T02:53:19.699Z,809.14
2018-12-09T02:54:19.707Z,809.03
2018-12-09T02:55:19.712Z,809.05
2018-12-09T02:56:19.719Z,809.22
2018-12-09T02:57:19.729Z,809.01
2018-12-09T02:58:19.733Z,808.99
2018-12-09T02:59:19.738Z,808.89
2018-12-09T03:00:19.746Z,809.00
2018-12-09T03:01:19.755Z,808.98
2018-12-09T03:02:19.762Z,808.93
2018-12-09T03:03:19.767Z,808.78
2018-12-09T03:04:19.775Z,808.81
2018-12-09T03:05:19.782Z,808.87
2018-12-09T03:06:19.788Z,808.81
2018-12-09T03:07:19.797Z,808.90
2018-12-09T03:08:19.803Z,808.95
2018-12-09T03:09:19.809Z,808.86
2018-12-09T03:10:19.815Z,808.75
2018-12-09T03:11:19.824Z,808.66
2018-12-09T03:12:19.830Z,808.56
2018-12-09T03:13:19.837Z,808.47
2018-12-09T03:14:19.845Z,808.68
2018-12-09T03:15:19.850Z,808.60
2018-12-09T03:16:19.857Z,808.70
2018-12-09T03:17:19.863Z,808.55
2018-12-09T03:18:19.874Z,808.54
2018-12-09T03:19:19.881Z,808.48
2018-12-09T03:20:19.888Z,808.48
2018-12-09T03:21:19.895Z,808.65
2018-12-09T03:22:19.903Z,808.63
2018-12-09T03:23:19.908Z,808.57
2018-12-09T03:24:19.915Z,808.59
2018-12-09T03:25:19.920Z,808.60
2018-12-09T03:26:19.932Z,808.53
2018-12-09T03:27:19.936Z,808.49
2018-12-09T03:28:19.947Z,808.56
2018-12-09T03:29:19.950Z,808.71
2018-12-09T03:30:19.959Z,808.36
2018-12-09T03:31:19.961Z,808.78
2018-12-09T03:32:19.988Z,808.76
2018-12-09T03:33:19.976Z,808.74
2018-12-09T03:34:19.980Z,808.88
2018-12-09T03:35:19.993Z,808.76
2018-12-09T03:36:19.994Z,809.16
2018-12-09T03:37:20.002Z,809.52
2018-12-09T03:38:20.006Z,809.13
2018-12-09T03:39:20.012Z,808.91
2018-12-09T03:40:20.021Z,808.85
2018-12-09T03:41:20.034Z,808.72
2018-12-09T03:42:20.036Z,809.02
2018-12-09T03:43:20.042Z,808.91
2018-12-09T03:44:20.049Z,808.86
2018-12-09T03:45:20.055Z,808.71
2018-12-09T03:46:20.065Z,808.70
2018-12-09T03:47:20.070Z,808.95
2018-12-09T03:48:20.076Z,808.41
2018-12-09T03:49:20.085Z,808.48
2018-12-09T03:50:20.089Z,808.34
2018-12-09T03:51:20.097Z,808.30
2018-12-09T03:52:20.102Z,808.44
2018-12-09T03:53:20.108Z,808.53
2018-12-09T03:54:20.117Z,808.54
2018-12-09T03:55:20.123Z,808.75
2018-12-09T03:56:20.129Z,808.79
2018-12-09T03:57:20.139Z,808.88
2018-12-09T03:58:20.150Z,808.92
2018-12-09T03:59:20.147Z,809.10
2018-12-09T04:00:20.160Z,808.66
2018-12-09T04:01:20.164Z,808.61
2018-12-09T04:02:20.170Z,808.79
2018-12-09T04:03:20.174Z,809.21
2018-12-09T04:04:20.180Z,809.27
2018-12-09T04:05:20.188Z,808.96
2018-12-09T04:06:20.194Z,809.04
2018-12-09T04:07:20.198Z,809.16
2018-12-09T04:08:20.209Z,809.30
2018-12-09T04:09:20.214Z,809.88
2018-12-09T04:10:20.221Z,808.72
2018-12-09T04:11:20.226Z,809.40
2018-12-09T04:12:20.232Z,809.49
2018-12-09T04:13:20.238Z,809.28
2018-12-09T04:14:20.253Z,808.81
2018-12-09T04:15:20.251Z,809.06
2018-12-09T04:16:20.263Z,809.06
2018-12-09T04:17:20.270Z,809.11
2018-12-09T04:18:20.269Z,809.11
2018-12-09T04:19:20.274Z,808.95
2018-12-09T04:20:20.282Z,808.95
2018-12-09T04:21:20.290Z,809.18
2018-12-09T04:22:20.294Z,809.06
2018-12-09T04:23:20.305Z,808.87
2018-12-09T04:24:20.305Z,808.81
2018-12-09T04:25:20.312Z,808.54
2018-12-09T04:26:20.318Z,808.76
2018-12-09T04:27:20.327Z,808.84
2018-12-09T04:28:20.331Z,808.73
2018-12-09T04:29:20.338Z,808.92
2018-12-09T04:30:20.344Z,808.93
2018-12-09T04:31:20.349Z,808.80
2018-12-09T04:32:20.354Z,808.69
2018-12-09T04:33:20.362Z,808.63
2018-12-09T04:34:20.371Z,808.60
2018-12-09T04:35:20.374Z,808.40
2018-12-09T04:36:20.384Z,808.58
2018-12-09T04:37:20.388Z,808.68
2018-12-09T04:38:20.391Z,808.39
2018-12-09T04:39:20.397Z,808.20
2018-12-09T04:40:20.407Z,808.20
2018-12-09T04:41:20.410Z,808.29
2018-12-09T04:42:20.416Z,808.43
2018-12-09T04:43:20.423Z,808.45
2018-12-09T04:44:20.429Z,808.51
2018-12-09T04:45:20.437Z,808.41
2018-12-09T04:46:20.443Z,808.20
2018-12-09T04:47:20.447Z,808.38
2018-12-09T04:48:20.456Z,808.04
2018-12-09T04:49:20.459Z,807.78
2018-12-09T04:50:20.471Z,808.10
2018-12-09T04:51:20.474Z,808.18
2018-12-09T04:52:20.479Z,808.02
2018-12-09T04:53:20.483Z,808.05
2018-12-09T04:54:20.490Z,808.23
2018-12-09T04:55:20.495Z,808.36
2018-12-09T04:56:20.506Z,808.18
2018-12-09T04:57:20.509Z,808.19
2018-12-09T04:58:20.516Z,808.23
2018-12-09T04:59:20.521Z,808.33
2018-12-09T05:00:20.531Z,808.25
2018-12-09T05:01:20.533Z,808.25
2018-12-09T05:02:20.544Z,808.22
2018-12-09T05:03:20.546Z,808.33
2018-12-09T05:04:20.550Z,808.47
2018-12-09T05:05:20.556Z,808.49
2018-12-09T05:06:20.565Z,808.26
2018-12-09T05:07:20.571Z,808.16
2018-12-09T05:08:20.576Z,808.06
2018-12-09T05:09:20.584Z,807.69
2018-12-09T05:10:20.589Z,807.87
2018-12-09T05:11:20.595Z,807.80
2018-12-09T05:12:20.600Z,807.98
2018-12-09T05:13:20.608Z,808.11
2018-12-09T05:14:20.615Z,808.20
2018-12-09T05:15:20.625Z,808.00
2018-12-09T05:16:20.635Z,808.03
2018-12-09T05:17:20.634Z,808.11
2018-12-09T05:18:20.641Z,808.04
2018-12-09T05:19:20.648Z,808.25
2018-12-09T05:20:20.651Z,808.25
2018-12-09T05:21:20.659Z,808.29
2018-12-09T05:22:20.665Z,807.98
2018-12-09T05:23:20.671Z,807.86
2018-12-09T05:24:20.677Z,807.99
2018-12-09T05:25:20.686Z,808.05
2018-12-09T05:26:20.690Z,807.87
2018-12-09T05:27:20.702Z,808.17
2018-12-09T05:28:20.701Z,808.23
2018-12-09T05:29:20.706Z,808.15
2018-12-09T05:30:20.715Z,808.09
2018-12-09T05:31:20.721Z,808.05
2018-12-09T05:32:20.725Z,808.14
2018-12-09T05:33:20.733Z,808.17
2018-12-09T05:34:20.739Z,808.12
2018-12-09T05:35:20.745Z,808.14
2018-12-09T05:36:20.752Z,808.34
2018-12-09T05:37:20.756Z,808.32
2018-12-09T05:38:20.762Z,808.15
2018-12-09T05:39:20.775Z,808.36
2018-12-09T05:40:20.777Z,808.18
2018-12-09T05:41:20.783Z,808.20
2018-12-09T05:42:20.787Z,808.36
2018-12-09T05:43:20.793Z,808.47
2018-12-09T05:44:20.800Z,808.36
2018-12-09T05:45:20.805Z,808.28
2018-12-09T05:46:20.813Z,808.30
2018-12-09T05:47:20.821Z,808.47
2018-12-09T05:48:20.824Z,808.13
2018-12-09T05:49:20.834Z,808.38
2018-12-09T05:50:20.838Z,808.31
2018-12-09T05:51:20.844Z,808.26
2018-12-09T05:52:20.851Z,808.43
2018-12-09T05:53:20.854Z,808.60
2018-12-09T05:54:20.861Z,808.75
2018-12-09T05:55:20.866Z,808.71
2018-12-09T05:56:20.872Z,808.61
2018-12-09T05:57:20.876Z,808.62
2018-12-09T05:58:20.883Z,808.28
2018-12-09T05:59:20.891Z,808.24
2018-12-09T06:00:20.897Z,808.54
2018-12-09T06:01:20.904Z,808.08
2018-12-09T06:02:20.908Z,807.09
2018-12-09T06:03:20.914Z,808.42
2018-12-09T06:04:20.918Z,808.61
2018-12-09T06:05:20.924Z,808.87
2018-12-09T06:06:20.935Z,808.82
2018-12-09T06:07:20.939Z,808.80
2018-12-09T06:08:20.940Z,809.21
2018-12-09T06:09:20.946Z,808.29
2018-12-09T06:10:20.951Z,808.02
2018-12-09T06:11:20.958Z,808.69
2018-12-09T06:12:20.961Z,808.32
2018-12-09T06:13:20.965Z,808.32
2018-12-09T06:14:20.975Z,807.93
2018-12-09T06:15:20.980Z,808.39
2018-12-09T06:16:20.984Z,808.39
2018-12-09T06:17:20.990Z,807.90
2018-12-09T06:18:20.993Z,808.00
2018-12-09T06:19:20.998Z,808.18
2018-12-09T06:20:21.003Z,808.02
2018-12-09T06:21:21.011Z,808.35
2018-12-09T06:22:21.016Z,807.99
2018-12-09T06:23:21.018Z,808.08
2018-12-09T06:24:21.026Z,807.84
2018-12-09T06:25:21.031Z,808.04
2018-12-09T06:26:21.037Z,808.24
2018-12-09T06:27:21.039Z,808.16
2018-12-09T06:28:21.048Z,808.05
2018-12-09T06:29:21.052Z,808.21
2018-12-09T06:30:21.063Z,808.25
2018-12-09T06:31:21.069Z,808.04
2018-12-09T06:32:21.069Z,808.11
2018-12-09T06:33:21.076Z,808.09
2018-12-09T06:34:21.182Z,808.13
2018-12-09T06:35:21.084Z,807.76
2018-12-09T06:36:21.088Z,807.84
2018-12-09T06:37:21.093Z,807.95
2018-12-09T06:38:21.098Z,807.98
2018-12-09T06:39:21.105Z,807.95
2018-12-09T06:40:21.110Z,808.16
2018-12-09T06:41:21.114Z,808.10
2018-12-09T06:42:21.120Z,808.28
2018-12-09T06:43:21.124Z,808.37
2018-12-09T06:44:21.129Z,808.15
2018-12-09T06:45:21.134Z,807.95
2018-12-09T06:46:21.140Z,807.77
2018-12-09T06:47:21.144Z,808.06
2018-12-09T06:48:21.152Z,808.37
2018-12-09T06:49:21.155Z,807.98
2018-12-09T06:50:21.162Z,808.02
2018-12-09T06:51:21.271Z,807.86
2018-12-09T06:52:21.169Z,808.18
2018-12-09T06:53:21.176Z,807.89
2018-12-09T06:54:21.184Z,807.74
2018-12-09T06:55:21.190Z,807.82
2018-12-09T06:56:21.191Z,807.72
2018-12-09T06:57:21.196Z,807.75
2018-12-09T06:58:21.204Z,807.67
2018-12-09T06:59:21.206Z,807.87
2018-12-09T07:00:21.212Z,808.30
2018-12-09T07:01:21.216Z,808.00
2018-12-09T07:02:21.225Z,807.76
2018-12-09T07:03:21.227Z,807.70
2018-12-09T07:04:21.233Z,807.99
2018-12-09T07:05:21.237Z,807.72
2018-12-09T07:06:21.243Z,807.87
2018-12-09T07:07:21.246Z,807.85
2018-12-09T07:08:21.252Z,808.13
2018-12-09T07:09:21.260Z,807.84
2018-12-09T07:10:21.264Z,808.06
2018-12-09T07:11:21.267Z,807.97
2018-12-09T07:12:21.355Z,807.84
2018-12-09T07:13:21.276Z,807.67
2018-12-09T07:14:21.283Z,807.57
2018-12-09T07:15:21.286Z,807.70
2018-12-09T07:16:21.292Z,807.48
2018-12-09T07:17:21.296Z,807.84
2018-12-09T07:18:21.302Z,807.65
2018-12-09T07:19:21.309Z,807.56
2018-12-09T07:20:21.314Z,807.81
2018-12-09T07:21:21.318Z,807.75
2018-12-09T07:22:21.322Z,807.88
2018-12-09T07:23:21.425Z,808.06
2018-12-09T07:24:21.334Z,808.08
2018-12-09T07:25:21.335Z,807.63
2018-12-09T07:26:21.342Z,808.26
2018-12-09T07:27:21.345Z,808.15
2018-12-09T07:28:21.353Z,808.08
2018-12-09T07:29:21.355Z,807.76
2018-12-09T07:30:21.378Z,807.99
2018-12-09T07:31:21.366Z,808.07
2018-12-09T07:32:21.370Z,808.18
2018-12-09T07:33:21.375Z,808.27
2018-12-09T07:34:21.383Z,808.21
2018-12-09T07:35:21.384Z,808.26
2018-12-09T07:36:21.392Z,808.08
2018-12-09T07:37:21.395Z,807.73
2018-12-09T07:38:21.400Z,808.42
2018-12-09T07:39:21.405Z,808.39
2018-12-09T07:40:21.408Z,808.42
2018-12-09T07:41:21.414Z,808.36
2018-12-09T07:42:21.419Z,808.32
2018-12-09T07:43:21.423Z,808.80
2018-12-09T07:44:21.430Z,808.66
2018-12-09T07:45:21.435Z,808.76
2018-12-09T07:46:21.439Z,808.51
2018-12-09T07:47:21.442Z,808.87
2018-12-09T07:48:21.489Z,808.76
2018-12-09T07:49:21.450Z,808.74
2018-12-09T07:50:21.455Z,808.93
2018-12-09T07:51:21.465Z,809.26
2018-12-09T07:52:21.464Z,809.09
2018-12-09T07:53:21.473Z,809.03
2018-12-09T07:54:21.474Z,809.09
2018-12-09T07:55:21.480Z,809.22
2018-12-09T07:56:21.487Z,809.12
2018-12-09T07:57:21.488Z,809.20
2018-12-09T07:58:21.493Z,808.94
2018-12-09T07:59:21.497Z,809.33
2018-12-09T08:00:21.503Z,808.86
2018-12-09T08:01:21.511Z,809.27
2018-12-09T08:02:21.509Z,809.07
2018-12-09T08:03:21.514Z,809.26
2018-12-09T08:04:21.585Z,809.19
2018-12-09T08:05:21.524Z,809.25
2018-12-09T08:06:21.526Z,809.06
2018-12-09T08:07:21.531Z,809.28
2018-12-09T08:08:21.537Z,809.06
2018-12-09T08:09:21.541Z,808.95
2018-12-09T08:10:21.546Z,808.97
2018-12-09T08:11:21.549Z,808.78
2018-12-09T08:12:21.554Z,808.72
2018-12-09T08:13:21.558Z,809.07
2018-12-09T08:14:21.572Z,808.98
2018-12-09T08:15:21.566Z,808.87
2018-12-09T08:16:21.573Z,808.63
2018-12-09T08:17:21.577Z,808.74
2018-12-09T08:18:21.581Z,808.77
2018-12-09T08:19:21.584Z,808.74
2018-12-09T08:20:21.591Z,808.65
2018-12-09T08:21:21.594Z,808.53
2018-12-09T08:22:21.600Z,808.52
2018-12-09T08:23:21.605Z,808.48
2018-12-09T08:24:21.609Z,808.47
2018-12-09T08:25:21.614Z,808.32
2018-12-09T08:26:21.621Z,808.50
2018-12-09T08:27:21.622Z,808.39
2018-12-09T08:28:21.631Z,808.19
2018-12-09T08:29:21.638Z,808.44
2018-12-09T08:30:21.639Z,808.42
2018-12-09T08:31:21.641Z,808.35
2018-12-09T08:32:21.650Z,808.34
2018-12-09T08:33:21.658Z,808.32
2018-12-09T08:34:21.658Z,808.38
2018-12-09T08:35:21.664Z,808.34
2018-12-09T08:36:21.670Z,808.28
2018-12-09T08:37:21.673Z,808.31
2018-12-09T08:38:21.681Z,808.26
2018-12-09T08:39:21.684Z,808.31
2018-12-09T08:40:21.691Z,808.45
2018-12-09T08:41:21.695Z,808.41
2018-12-09T08:42:21.698Z,808.34
2018-12-09T08:43:21.704Z,808.37
2018-12-09T08:44:21.707Z,808.34
2018-12-09T08:45:21.713Z,808.36
2018-12-09T08:46:21.720Z,808.24
2018-12-09T08:47:21.722Z,808.46
2018-12-09T08:48:21.728Z,808.56
2018-12-09T08:49:21.737Z,808.53
2018-12-09T08:50:21.739Z,808.51
2018-12-09T08:51:21.745Z,808.49
2018-12-09T08:52:21.747Z,808.43
2018-12-09T08:53:21.754Z,808.56
2018-12-09T08:54:21.761Z,808.45
2018-12-09T08:55:21.764Z,808.62
2018-12-09T08:56:21.768Z,808.59
2018-12-09T08:57:21.783Z,808.48
2018-12-09T08:58:21.777Z,808.53
2018-12-09T08:59:21.784Z,808.40
2018-12-09T09:00:21.789Z,808.30
2018-12-09T09:01:21.797Z,808.30
2018-12-09T09:02:21.798Z,808.17
2018-12-09T09:03:21.806Z,808.15
2018-12-09T09:04:21.809Z,808.05
2018-12-09T09:05:21.828Z,808.06
2018-12-09T09:06:21.819Z,807.99
2018-12-09T09:07:21.826Z,807.97
2018-12-09T09:08:21.827Z,808.02
2018-12-09T09:09:21.841Z,808.13
2018-12-09T09:10:22.074Z,808.18
2018-12-09T09:11:21.846Z,808.19
2018-12-09T09:12:21.852Z,808.16
2018-12-09T09:13:21.861Z,808.19
2018-12-09T09:14:21.861Z,808.25
2018-12-09T09:15:21.864Z,808.24
2018-12-09T09:16:21.871Z,808.19
2018-12-09T09:17:21.877Z,808.16
2018-12-09T09:18:21.881Z,808.24
2018-12-09T09:19:21.886Z,808.28
2018-12-09T09:20:21.906Z,808.12
2018-12-09T09:21:21.900Z,808.11
2018-12-09T09:22:21.981Z,808.08
2018-12-09T09:23:21.911Z,808.09
2018-12-09T09:24:21.913Z,808.07
2018-12-09T09:25:21.919Z,808.00
2018-12-09T09:26:21.935Z,808.05
2018-12-09T09:27:21.932Z,808.09
2018-12-09T09:28:21.937Z,808.08
2018-12-09T09:29:21.941Z,808.07
2018-12-09T09:30:21.948Z,808.09
2018-12-09T09:31:21.959Z,808.03
2018-12-09T09:32:21.959Z,808.15
2018-12-09T09:33:21.964Z,808.27
2018-12-09T09:34:21.969Z,808.15
2018-12-09T09:35:21.974Z,808.23
2018-12-09T09:36:21.980Z,808.24
2018-12-09T09:37:21.982Z,808.19
2018-12-09T09:38:21.988Z,808.19
2018-12-09T09:39:21.992Z,808.19
2018-12-09T09:40:22.000Z,808.20
2018-12-09T09:41:22.005Z,808.22
2018-12-09T09:42:22.009Z,808.26
2018-12-09T09:43:22.014Z,808.27
2018-12-09T09:44:22.018Z,808.36
2018-12-09T09:45:22.026Z,808.35
2018-12-09T09:46:22.029Z,808.37
2018-12-09T09:47:22.038Z,808.40
2018-12-09T09:48:22.040Z,808.32
2018-12-09T09:49:22.054Z,808.27
2018-12-09T09:50:22.054Z,808.26
2018-12-09T09:51:22.060Z,808.27
2018-12-09T09:52:22.064Z,808.22
2018-12-09T09:53:22.068Z,808.27
2018-12-09T09:54:22.074Z,808.33
2018-12-09T09:55:22.080Z,808.33
2018-12-09T09:56:22.083Z,808.32
2018-12-09T09:57:22.091Z,808.26
2018-12-09T09:58:22.096Z,808.27
2018-12-09T09:59:22.105Z,808.27
2018-12-09T10:00:22.106Z,808.36
2018-12-09T10:01:22.111Z,808.44
2018-12-09T10:02:22.121Z,808.44
2018-12-09T10:03:25.860Z,808.60
2018-12-09T10:04:22.131Z,808.63
2018-12-09T10:05:22.143Z,808.55
2018-12-09T10:06:22.141Z,808.61
2018-12-09T10:07:22.145Z,808.57
2018-12-09T10:08:22.152Z,808.55
2018-12-09T10:09:22.158Z,808.55
2018-12-09T10:10:22.162Z,808.89
2018-12-09T10:11:22.169Z,808.72
2018-12-09T10:12:22.179Z,808.59
2018-12-09T10:13:22.183Z,808.49
2018-12-09T10:14:22.211Z,808.76
2018-12-09T10:15:22.194Z,808.88
2018-12-09T10:16:22.195Z,809.23
2018-12-09T10:17:22.202Z,808.97
2018-12-09T10:18:22.207Z,808.85
2018-12-09T10:19:22.210Z,808.94
2018-12-09T10:20:22.221Z,809.16
2018-12-09T10:21:22.228Z,808.98
2018-12-09T10:22:22.228Z,809.31
2018-12-09T10:23:22.236Z,809.15
2018-12-09T10:24:22.237Z,809.09
2018-12-09T10:25:22.242Z,809.30
2018-12-09T10:26:22.246Z,809.33
2018-12-09T10:27:22.252Z,809.06
2018-12-09T10:28:22.255Z,808.92
2018-12-09T10:29:22.264Z,808.85
2018-12-09T10:30:22.271Z,809.12
2018-12-09T10:31:22.273Z,809.37
2018-12-09T10:32:22.277Z,808.82
2018-12-09T10:33:22.330Z,808.52
2018-12-09T10:34:22.289Z,808.79
2018-12-09T10:35:22.290Z,808.49
2018-12-09T10:36:22.298Z,809.05
2018-12-09T10:37:22.304Z,809.01
2018-12-09T10:38:22.305Z,808.99
2018-12-09T10:39:22.307Z,808.97
2018-12-09T10:40:22.319Z,809.15
2018-12-09T10:41:22.316Z,809.42
2018-12-09T10:42:22.322Z,809.56
2018-12-09T10:43:22.325Z,808.76
2018-12-09T10:44:22.332Z,809.15
2018-12-09T10:45:22.340Z,809.10
2018-12-09T10:46:22.338Z,809.12
2018-12-09T10:47:22.346Z,809.55
2018-12-09T10:48:22.348Z,809.24
2018-12-09T10:49:22.352Z,809.51
2018-12-09T10:50:22.355Z,809.95
2018-12-09T10:51:22.378Z,809.59
2018-12-09T10:52:22.363Z,810.04
2018-12-09T10:53:22.371Z,809.52
2018-12-09T10:54:22.372Z,809.63
2018-12-09T10:55:22.373Z,809.78
2018-12-09T10:56:22.378Z,809.78
2018-12-09T10:57:22.381Z,809.76
2018-12-09T10:58:22.388Z,809.69
2018-12-09T10:59:22.387Z,809.68
2018-12-09T11:00:22.393Z,809.77
2018-12-09T11:01:22.407Z,809.77
2018-12-09T11:02:22.406Z,809.79
2018-12-09T11:03:22.407Z,809.83
2018-12-09T11:04:22.413Z,809.74
2018-12-09T11:05:22.414Z,809.90
2018-12-09T11:06:22.421Z,809.75
2018-12-09T11:07:22.444Z,809.67
2018-12-09T11:08:22.430Z,809.62
2018-12-09T11:09:22.449Z,809.81
2018-12-09T11:10:22.435Z,809.80
2018-12-09T11:11:22.441Z,809.82
2018-12-09T11:12:22.446Z,809.66
2018-12-09T11:13:22.447Z,809.72
2018-12-09T11:14:22.452Z,809.84
2018-12-09T11:15:22.460Z,809.94
2018-12-09T11:16:22.462Z,809.95
2018-12-09T11:17:22.467Z,809.96
2018-12-09T11:18:22.471Z,810.15
2018-12-09T11:19:22.474Z,810.00
2018-12-09T11:20:22.481Z,809.99
2018-12-09T11:21:30.354Z,809.95
2018-12-09T11:22:22.488Z,809.93
2018-12-09T11:23:22.491Z,810.09
2018-12-09T11:24:22.505Z,810.05
2018-12-09T11:25:22.501Z,809.88
2018-12-09T11:26:22.509Z,809.89
2018-12-09T11:27:22.514Z,809.92
2018-12-09T11:28:22.515Z,809.90
2018-12-09T11:29:22.518Z,810.04
2018-12-09T11:30:22.550Z,810.00
2018-12-09T11:31:22.531Z,810.03
2018-12-09T11:32:22.535Z,809.95
2018-12-09T11:33:22.540Z,809.76
2018-12-09T11:34:22.546Z,809.94
2018-12-09T11:35:22.548Z,810.01
2018-12-09T11:36:22.553Z,809.94
2018-12-09T11:37:22.557Z,810.05
2018-12-09T11:38:22.561Z,809.73
2018-12-09T11:39:22.568Z,809.77
2018-12-09T11:40:22.571Z,809.76
2018-12-09T11:41:22.576Z,809.84
2018-12-09T11:42:22.581Z,809.78
2018-12-09T11:43:22.587Z,809.79
2018-12-09T11:44:22.593Z,809.88
2018-12-09T11:45:22.595Z,809.61
2018-12-09T11:46:22.604Z,809.68
2018-12-09T11:47:22.609Z,809.68
2018-12-09T11:48:22.611Z,809.65
2018-12-09T11:49:22.615Z,809.59
2018-12-09T11:50:22.620Z,809.52
2018-12-09T11:51:22.622Z,809.58
2018-12-09T11:52:22.632Z,809.39
2018-12-09T11:53:22.638Z,809.35
2018-12-09T11:54:22.640Z,809.46
2018-12-09T11:55:22.641Z,809.30
2018-12-09T11:56:22.645Z,809.45
2018-12-09T11:57:22.651Z,809.22
2018-12-09T11:58:22.659Z,809.47
2018-12-09T11:59:22.661Z,809.38
2018-12-09T12:00:22.678Z,809.43
2018-12-09T12:01:22.681Z,809.66
2018-12-09T12:02:22.676Z,809.53
2018-12-09T12:03:22.679Z,809.46
2018-12-09T12:04:22.684Z,809.46
2018-12-09T12:05:22.689Z,809.16
2018-12-09T12:06:22.697Z,809.25
2018-12-09T12:07:22.710Z,809.16
2018-12-09T12:08:22.705Z,809.32
2018-12-09T12:09:22.717Z,809.08
2018-12-09T12:10:22.714Z,809.07
2018-12-09T12:11:22.718Z,808.91
2018-12-09T12:12:22.729Z,809.08
2018-12-09T12:13:22.734Z,809.17
2018-12-09T12:14:22.753Z,809.48
2018-12-09T12:15:22.740Z,809.57
2018-12-09T12:16:22.749Z,809.39
2018-12-09T12:17:22.752Z,809.51
2018-12-09T12:18:22.756Z,809.54
2018-12-09T12:19:22.762Z,809.32
2018-12-09T12:20:22.769Z,809.37
2018-12-09T12:21:22.776Z,809.51
2018-12-09T12:22:22.874Z,809.45
2018-12-09T12:23:22.783Z,809.55
2018-12-09T12:24:22.789Z,809.50
2018-12-09T12:25:22.793Z,809.41
2018-12-09T12:26:22.798Z,809.43
2018-12-09T12:27:22.804Z,809.37
2018-12-09T12:28:22.810Z,809.33